AirNav   Air Wisconsin pilot careers
 
 483 users online  

CO65 Geary Ranch Airport
Westcliffe, Colorado, USA


FAA INFORMATION EFFECTIVE 12 OCTOBER 2017

Location

FAA Identifier: CO65
Lat/Long: 38-02-45.0000N / 105-28-17.0130W
38-02.750000N / 105-28.283550W
38.0458333 / -105.4713925
(estimated)
Elevation: 8300 ft. / 2530 m (estimated)
Variation: 11E (1990)
From city: 1 mile N of WESTCLIFFE, CO
Time zone: UTC -6 (UTC -7 during Standard Time)
Zip code: 81252

Airport Operations

Airport use: Private use. Permission required prior to landing
Activation date: 01/1992
Control tower: no
ARTCC: DENVER CENTER
FSS: DENVER FLIGHT SERVICE STATION
Attendance: UNATNDD
Wind indicator: yes
Segmented circle: no

Airport Services

Fuel available: 100LL

Runway Information

Runway 7/25

Dimensions: 4200 x 30 ft. / 1280 x 9 m
Surface: gravel
RUNWAY 7  RUNWAY 25
Traffic pattern: leftleft
Obstructions: 30 ft. pline, marked, 1000 ft. from runwaynone

Airport Ownership and Management from official FAA records

Ownership: Privately-owned
Owner: WILLIAM SCOTT GEARY
5700 COUNTY ROAD 129
WESTCLIFFE, CO 81252
Phone (719) 371-9331
Manager: SCOTT GEARY
5700 COUNTY ROAD 129
WESTCLIFFE, CO 81252
Phone (719) 371-9331

Airport Operational Statistics

Aircraft based on the field: 1
Single engine airplanes: 1
    

Instrument Procedures

There are no published instrument procedures at CO65.

Some nearby airports with instrument procedures:

1V6 - Fremont County Airport (29 nm NE)
4V1 - Spanish Peaks Airfield (39 nm SE)
KANK - Harriet Alexander Field Airport (40 nm NW)
KALS - San Luis Valley Regional Airport/Bergman Field (41 nm SW)
KMVI - Monte Vista Municipal Airport (41 nm SW)
 
Loc | Ops | Rwys | IFR | FBO | Links
Com | Nav | Svcs | Stats | Notes


 
Area around CO65 (Geary Ranch Airport)
 
Road maps at: MapQuest Bing Google
 
Aerial photo
No photo
 
Sectional chart

 
Airport distance calculator
Flying to Geary Ranch Airport? Find the distance to fly.

From to CO65

Sunrise and sunset
Times for 22-Oct-2017
 Local
(UTC-6)
 Zulu
(UTC)
Morning civil twilight06:5212:52
Sunrise07:1813:18
Sunset18:1400:14
Evening civil twilight18:4100:41

Current date and time
Zulu (UTC)  23-Oct-2017 05:30:29
Local (UTC-6)  22-Oct-2017 23:30:29
 
METAR
K1V6 
29nm NE 
230510Z AUTO 32006KT 10SM CLR 15/M03 A3020 RMK AO2
K04V 
33nm W 
230512Z AUTO 34003KT 10SM CLR 02/M06 A3045 RMK AO2
KVTP 
36nm SE 
230512Z AUTO 20026G33KT 10SM CLR 04/M10 A3058 RMK AO2
KANK 
40nm NW 
230515Z AUTO 34004KT 10SM CLR 11/M08 A3043 RMK AO1 T01051078
KALS 
41nm SW 
230452Z AUTO 19004KT 10SM CLR M01/M08 A3042 RMK AO2 SLP286 T10111078
KRCV 
46nm SW 
230510Z AUTO 27006KT 10SM CLR 02/M08 A3045 RMK AO2 T00191078
KMYP 
48nm NW 
230513Z AUTO 27045G52KT 10SM CLR 00/M09 A3063 RMK AO2
KPUB 
48nm E 
230453Z AUTO 31011KT 10SM CLR 17/M04 A3012 RMK AO2 SLP165 T01671039
KFCS 
50nm NE 
230458Z AUTO 27006KT 10SM CLR 09/M03 A3017 RMK AO2 SLP215 T00941031 $
TAF
KALS 
41nm SW 
221726Z 2218/2318 VRB04KT P6SM SKC FM222000 32007KT P6SM SKC FM230400 VRB04KT P6SM SKC FM231700 33004KT P6SM SKC
KPUB 
48nm E 
230214Z 2302/2324 VRB06KT P6SM BKN230 FM230600 VRB06KT P6SM SCT230 FM231700 09014KT P6SM SCT200
KFCS 
50nm NE 
222103Z 2221/2403 19009KT 9999 FEW150 SCT200 QNH3012INS BECMG 2223/2224 31009KT 9999 FEW200 QNH3016INS BECMG 2317/2318 07012KT 9999 SKC QNH3035INS TEMPO 2318/2324 07012G20KT BECMG 2400/2401 33009KT 9999 SKC QNH3040INS TX21/2222Z TN06/2313Z
NOTAMs
Click for the latest NOTAMs
NOTAMs are issued by the DoD/FAA and will open in a separate window not controlled by AirNav.

 

 
 

Would you like to see your business listed on this page?

 If your business provides an interesting product or service to pilots, flight crews, aircraft, or users of the Geary Ranch Airport, you should consider listing it here.  To start the listing process, click on the button below
 
Add a business
 

Other Pages about Geary Ranch Airport

Update a link
 
Copyright © AirNav, LLC. All rights reserved. Privacy Policy  Contact